createdAt,value
2019-05-16T00:00:51.203Z,80.63
2019-05-16T00:03:21.337Z,80.58
2019-05-16T00:05:54.504Z,80.43
2019-05-16T00:08:23.586Z,80.51
2019-05-16T00:10:53.957Z,80.43
2019-05-16T00:13:24.207Z,80.61
2019-05-16T00:15:54.598Z,81.55
2019-05-16T00:18:24.848Z,81.42
2019-05-16T00:20:55.023Z,81.60
2019-05-16T00:23:25.259Z,81.11
2019-05-16T00:25:55.673Z,81.22
2019-05-16T00:28:28.424Z,81.13
2019-05-16T00:30:59.237Z,81.66
2019-05-16T00:33:29.685Z,81.34
2019-05-16T00:36:05.323Z,81.43
2019-05-16T00:38:33.533Z,81.27
2019-05-16T00:41:05.242Z,81.24
2019-05-16T00:43:37.782Z,81.39
2019-05-16T00:46:08.246Z,81.93
2019-05-16T00:48:38.611Z,81.89
2019-05-16T00:51:08.971Z,81.65
2019-05-16T00:53:40.246Z,81.81
2019-05-16T00:56:10.689Z,81.71
2019-05-16T00:58:41.037Z,81.85
2019-05-16T01:01:12.180Z,82.29
2019-05-16T01:03:42.519Z,82.05
2019-05-16T01:06:18.560Z,81.67
2019-05-16T01:08:44.894Z,81.81
2019-05-16T01:11:15.132Z,81.98
2019-05-16T01:13:45.584Z,81.78
2019-05-16T01:16:18.536Z,81.34
2019-05-16T01:18:48.730Z,81.44
2019-05-16T01:21:21.914Z,81.53
2019-05-16T01:23:52.933Z,81.77
2019-05-16T01:26:23.172Z,82.20
2019-05-16T01:28:53.524Z,81.92
2019-05-16T01:31:24.654Z,81.66
2019-05-16T01:33:58.310Z,82.02
2019-05-16T01:36:36.859Z,82.20
2019-05-16T01:39:00.936Z,82.03
2019-05-16T01:41:31.218Z,82.18
2019-05-16T01:44:01.496Z,82.46
2019-05-16T01:46:31.871Z,82.21
2019-05-16T01:49:02.458Z,82.40
2019-05-16T01:51:32.767Z,82.06
2019-05-16T01:54:03.000Z,82.05
2019-05-16T01:56:33.787Z,81.94
2019-05-16T01:59:04.153Z,81.94
2019-05-16T02:01:34.367Z,81.95
2019-05-16T02:04:04.660Z,82.03
2019-05-16T02:06:50.097Z,82.10
2019-05-16T02:09:11.472Z,82.16
2019-05-16T02:11:40.221Z,81.79
2019-05-16T02:14:10.610Z,82.17
2019-05-16T02:16:43.406Z,81.63
2019-05-16T02:19:13.739Z,81.32
2019-05-16T02:21:43.895Z,81.35
2019-05-16T02:24:14.015Z,80.97
2019-05-16T02:26:44.295Z,81.13
2019-05-16T02:29:14.505Z,81.00
2019-05-16T02:31:44.746Z,80.82
2019-05-16T02:34:15.495Z,80.52
2019-05-16T02:37:09.570Z,80.82
2019-05-16T02:39:21.238Z,80.67
2019-05-16T02:41:52.121Z,80.51
2019-05-16T02:44:24.554Z,80.36
2019-05-16T02:46:54.629Z,80.22
2019-05-16T02:49:24.786Z,79.45
2019-05-16T02:51:55.620Z,78.58
2019-05-16T02:54:25.936Z,76.54
2019-05-16T02:56:56.493Z,75.53
2019-05-16T02:59:27.148Z,75.37
2019-05-16T03:02:00.614Z,75.27
2019-05-16T03:04:32.223Z,75.79
2019-05-16T03:07:03.583Z,76.81
2019-05-16T03:09:34.761Z,78.40
2019-05-16T03:12:05.159Z,79.11
2019-05-16T03:14:35.439Z,79.09
2019-05-16T03:17:07.204Z,79.10
2019-05-16T03:19:41.637Z,79.12
2019-05-16T03:22:12.210Z,79.14
2019-05-16T03:24:42.432Z,79.13
2019-05-16T03:27:13.225Z,78.64
2019-05-16T03:29:43.807Z,78.86
2019-05-16T03:32:14.664Z,79.48
2019-05-16T03:34:45.013Z,79.65
2019-05-16T03:37:15.494Z,80.16
2019-05-16T03:39:45.773Z,80.22
2019-05-16T03:42:15.920Z,79.88
2019-05-16T03:44:46.278Z,79.64
2019-05-16T03:47:16.680Z,79.93
2019-05-16T03:49:47.074Z,80.31
2019-05-16T03:52:20.541Z,80.70
2019-05-16T03:54:51.190Z,80.66
2019-05-16T03:57:21.909Z,80.56
2019-05-16T03:59:52.143Z,80.91
2019-05-16T04:02:22.347Z,80.76
2019-05-16T04:04:52.747Z,80.85
2019-05-16T04:07:23.086Z,80.64
2019-05-16T04:09:53.443Z,80.44
2019-05-16T04:12:23.622Z,80.26
2019-05-16T04:14:53.948Z,80.04
2019-05-16T04:17:24.307Z,80.01
2019-05-16T04:19:54.610Z,79.89
2019-05-16T04:22:24.862Z,80.50
2019-05-16T04:24:55.136Z,80.43
2019-05-16T04:27:25.452Z,80.59
2019-05-16T04:29:55.728Z,80.70
2019-05-16T04:32:25.984Z,80.76
2019-05-16T04:34:56.246Z,81.24
2019-05-16T04:37:26.577Z,81.09
2019-05-16T04:39:56.844Z,80.90
2019-05-16T04:42:26.956Z,80.80
2019-05-16T04:44:57.173Z,81.03
2019-05-16T04:47:27.424Z,81.37
2019-05-16T04:50:00.991Z,81.11
2019-05-16T04:52:30.643Z,80.49
2019-05-16T04:55:01.178Z,79.97
2019-05-16T04:57:31.519Z,80.10
2019-05-16T05:00:02.783Z,80.05
2019-05-16T05:02:33.192Z,80.40
2019-05-16T05:05:03.767Z,80.46
2019-05-16T05:07:35.057Z,80.20
2019-05-16T05:10:06.370Z,78.28
2019-05-16T05:12:36.622Z,77.52
2019-05-16T05:15:11.238Z,77.23
2019-05-16T05:17:41.522Z,76.81
2019-05-16T05:20:14.740Z,76.64
2019-05-16T05:22:45.077Z,77.33
2019-05-16T05:25:15.589Z,76.62
2019-05-16T05:27:49.932Z,75.69
2019-05-16T05:30:22.205Z,75.11
2019-05-16T05:32:52.578Z,75.03
2019-05-16T05:35:22.866Z,75.42
2019-05-16T05:37:53.024Z,75.59
2019-05-16T05:40:23.666Z,75.09
2019-05-16T05:42:54.663Z,75.36
2019-05-16T05:45:24.919Z,75.48
2019-05-16T05:47:55.716Z,75.51
2019-05-16T05:50:26.005Z,76.10
2019-05-16T05:52:56.414Z,75.66
2019-05-16T05:55:27.092Z,75.34
2019-05-16T05:58:00.907Z,76.05
2019-05-16T06:00:30.640Z,76.85
2019-05-16T06:03:00.929Z,77.01
2019-05-16T06:05:31.052Z,76.57
2019-05-16T06:08:01.314Z,76.50
2019-05-16T06:10:31.565Z,76.70
2019-05-16T06:13:01.660Z,76.67
2019-05-16T06:15:32.035Z,77.15
2019-05-16T06:18:02.117Z,76.27
2019-05-16T06:20:32.316Z,75.49
2019-05-16T06:23:02.665Z,74.85
2019-05-16T06:25:32.945Z,74.04
2019-05-16T06:28:03.209Z,72.96
2019-05-16T06:30:33.546Z,72.58
2019-05-16T06:33:03.668Z,72.39
2019-05-16T06:35:33.873Z,72.22
2019-05-16T06:38:04.556Z,71.81
2019-05-16T06:40:34.749Z,71.00
2019-05-16T06:43:05.037Z,70.95
2019-05-16T06:45:35.456Z,69.86
2019-05-16T06:48:05.689Z,70.01
2019-05-16T06:50:35.945Z,70.27
2019-05-16T06:53:06.330Z,70.48
2019-05-16T06:55:36.607Z,70.67
2019-05-16T06:58:06.851Z,70.73
2019-05-16T07:00:37.071Z,70.92
2019-05-16T07:03:09.509Z,71.17
2019-05-16T07:05:40.647Z,71.42
2019-05-16T07:08:12.811Z,72.31
2019-05-16T07:10:43.261Z,73.85
2019-05-16T07:13:13.582Z,73.42
2019-05-16T07:15:44.797Z,73.95
2019-05-16T07:18:15.154Z,72.51
2019-05-16T07:20:45.578Z,71.89
2019-05-16T07:23:16.097Z,72.09
2019-05-16T07:25:46.513Z,71.86
2019-05-16T07:28:16.856Z,71.40
2019-05-16T07:30:49.836Z,71.00
2019-05-16T07:33:21.008Z,70.77
2019-05-16T07:35:51.731Z,71.00
2019-05-16T07:38:22.159Z,71.48
2019-05-16T07:40:52.533Z,71.37
2019-05-16T07:43:22.954Z,71.65
2019-05-16T07:45:53.320Z,71.87
2019-05-16T07:48:23.726Z,71.96
2019-05-16T07:50:54.127Z,72.63
2019-05-16T07:53:24.458Z,72.40
2019-05-16T07:55:54.791Z,72.34
2019-05-16T07:58:25.163Z,71.68
2019-05-16T08:01:02.617Z,71.47
2019-05-16T08:03:30.186Z,70.65
2019-05-16T08:06:01.692Z,70.48
2019-05-16T08:08:31.982Z,70.23
2019-05-16T08:11:02.378Z,69.41
2019-05-16T08:13:32.952Z,68.78
2019-05-16T08:16:03.668Z,66.93
2019-05-16T08:18:34.013Z,65.63
2019-05-16T08:21:04.522Z,64.39
2019-05-16T08:23:34.971Z,63.23
2019-05-16T08:26:05.714Z,62.07
2019-05-16T08:28:36.133Z,59.87
2019-05-16T08:31:06.448Z,59.22
2019-05-16T08:33:36.792Z,57.75
2019-05-16T08:36:09.096Z,56.45
2019-05-16T08:38:42.999Z,56.75
2019-05-16T08:41:16.905Z,56.91
2019-05-16T08:43:46.632Z,57.13
2019-05-16T08:46:20.720Z,56.55
2019-05-16T08:50:06.253Z,56.21
2019-05-16T08:51:23.479Z,55.72
2019-05-16T08:53:53.889Z,55.57
2019-05-16T08:56:24.263Z,55.11
2019-05-16T08:58:54.753Z,54.41
2019-05-16T09:01:25.141Z,54.25
2019-05-16T09:03:55.500Z,54.59
2019-05-16T09:06:26.458Z,55.59
2019-05-16T09:08:59.600Z,55.32
2019-05-16T09:11:43.313Z,56.08
2019-05-16T09:14:01.100Z,56.55
2019-05-16T09:16:31.873Z,58.12
2019-05-16T09:19:02.280Z,57.67
2019-05-16T09:21:32.671Z,57.56
2019-05-16T09:24:02.987Z,57.40
2019-05-16T09:26:33.414Z,57.16
2019-05-16T09:29:04.165Z,56.70
2019-05-16T09:31:38.267Z,56.63
2019-05-16T09:34:07.529Z,56.77
2019-05-16T09:36:38.077Z,56.46
2019-05-16T09:39:09.613Z,56.34
2019-05-16T09:41:54.639Z,55.87
2019-05-16T09:44:12.099Z,54.34
2019-05-16T09:46:47.153Z,53.86
2019-05-16T09:49:24.256Z,54.41
2019-05-16T09:51:49.758Z,53.27
2019-05-16T09:54:20.118Z,53.08
2019-05-16T09:56:50.591Z,54.53
2019-05-16T09:59:21.017Z,54.63
2019-05-16T10:01:51.370Z,54.21
2019-05-16T10:04:21.791Z,54.13
2019-05-16T10:06:52.665Z,54.22
2019-05-16T10:09:37.795Z,53.19
2019-05-16T10:12:08.116Z,53.53
2019-05-16T10:14:27.333Z,53.63
2019-05-16T10:16:57.994Z,53.28
2019-05-16T10:19:28.807Z,55.26
2019-05-16T10:22:00.812Z,55.07
2019-05-16T10:24:31.234Z,55.46
2019-05-16T10:27:01.707Z,54.84
2019-05-16T10:29:32.001Z,53.25
2019-05-16T10:32:02.314Z,53.51
2019-05-16T10:34:32.771Z,54.75
2019-05-16T10:37:03.091Z,52.55
2019-05-16T10:39:33.477Z,52.88
2019-05-16T10:42:06.641Z,53.11
2019-05-16T10:44:38.419Z,52.34
2019-05-16T10:47:08.261Z,53.56
2019-05-16T10:49:41.723Z,51.58
2019-05-16T10:52:10.689Z,51.94
2019-05-16T10:54:54.167Z,52.25
2019-05-16T10:57:13.702Z,51.44
2019-05-16T11:00:01.862Z,51.96
2019-05-16T11:02:19.605Z,52.38
2019-05-16T11:04:59.965Z,51.75
2019-05-16T11:07:22.206Z,52.17
2019-05-16T11:09:58.596Z,51.61
2019-05-16T11:12:43.141Z,51.34
2019-05-16T11:14:56.753Z,51.19
2019-05-16T11:17:27.841Z,51.46
2019-05-16T11:19:58.411Z,51.47
2019-05-16T11:22:31.698Z,50.45
2019-05-16T11:25:02.526Z,50.09
2019-05-16T11:27:32.874Z,50.05
2019-05-16T11:30:03.222Z,49.99
2019-05-16T11:32:34.132Z,49.75
2019-05-16T11:35:04.500Z,49.29
2019-05-16T11:37:37.538Z,48.00
2019-05-16T11:40:08.222Z,48.34
2019-05-16T11:42:38.577Z,47.63
2019-05-16T11:45:10.524Z,48.58
2019-05-16T11:47:41.724Z,48.75
2019-05-16T11:50:12.755Z,49.22
2019-05-16T11:52:43.188Z,49.02
2019-05-16T11:55:14.567Z,48.08
2019-05-16T11:57:47.354Z,47.28
2019-05-16T12:00:18.123Z,48.25
2019-05-16T12:02:48.783Z,48.28
2019-05-16T12:05:19.550Z,47.96
2019-05-16T12:07:49.948Z,46.69
2019-05-16T12:10:20.563Z,48.61
2019-05-16T12:12:50.951Z,50.20
2019-05-16T12:15:21.785Z,51.74
2019-05-16T12:18:00.814Z,51.31
2019-05-16T12:20:24.631Z,51.96
2019-05-16T12:22:55.012Z,52.83
2019-05-16T12:25:27.327Z,52.83
2019-05-16T12:27:57.709Z,53.61
2019-05-16T12:30:28.082Z,54.23
2019-05-16T12:32:58.890Z,54.63
2019-05-16T12:35:29.236Z,56.16
2019-05-16T12:37:59.801Z,57.50
2019-05-16T12:40:30.272Z,57.15
2019-05-16T12:43:00.734Z,57.42
2019-05-16T12:45:31.055Z,57.99
2019-05-16T12:48:01.576Z,58.40
2019-05-16T12:50:31.900Z,59.47
2019-05-16T12:53:02.593Z,60.19
2019-05-16T12:55:33.199Z,60.89
2019-05-16T12:58:12.788Z,60.32
2019-05-16T13:00:37.130Z,59.15
2019-05-16T13:03:07.925Z,59.06
2019-05-16T13:05:38.779Z,59.42
2019-05-16T13:08:09.125Z,58.78
2019-05-16T13:10:39.515Z,58.19
2019-05-16T13:13:10.288Z,58.76
2019-05-16T13:15:42.348Z,58.51
2019-05-16T13:18:13.024Z,59.24
2019-05-16T13:20:46.792Z,59.25
2019-05-16T13:23:18.215Z,59.03
2019-05-16T13:25:48.920Z,59.75
2019-05-16T13:28:21.843Z,59.87
2019-05-16T13:30:52.287Z,59.82
2019-05-16T13:33:22.622Z,60.93
2019-05-16T13:35:53.384Z,62.20
2019-05-16T13:38:23.903Z,63.28
2019-05-16T13:40:57.046Z,63.77
2019-05-16T13:43:27.190Z,63.72
2019-05-16T13:45:57.787Z,63.04
2019-05-16T13:48:28.873Z,63.99
2019-05-16T13:51:11.075Z,64.15
2019-05-16T13:53:36.829Z,64.39
2019-05-16T13:56:13.073Z,64.21
2019-05-16T13:58:39.528Z,64.25
2019-05-16T14:01:10.008Z,64.66
2019-05-16T14:03:40.487Z,65.35
2019-05-16T14:06:10.992Z,65.84
2019-05-16T14:08:42.836Z,65.84
2019-05-16T14:11:13.361Z,66.09
2019-05-16T14:13:46.769Z,65.61
2019-05-16T14:16:17.951Z,65.57
2019-05-16T14:18:48.736Z,65.23
2019-05-16T14:21:19.485Z,65.91
2019-05-16T14:23:53.378Z,65.94
2019-05-16T14:26:22.098Z,67.09
2019-05-16T14:28:52.572Z,66.60
2019-05-16T14:31:24.556Z,67.52
2019-05-16T14:33:56.763Z,67.35
2019-05-16T14:36:27.991Z,67.71
2019-05-16T14:38:58.532Z,67.75
2019-05-16T14:41:29.035Z,68.07
2019-05-16T14:43:59.600Z,68.16
2019-05-16T14:46:32.722Z,67.90
2019-05-16T14:49:03.201Z,68.14
2019-05-16T14:51:34.037Z,67.68
2019-05-16T14:54:07.436Z,67.80
2019-05-16T14:56:38.623Z,68.22
2019-05-16T14:59:08.989Z,68.00
2019-05-16T15:01:39.494Z,68.50
2019-05-16T15:04:10.328Z,68.60
2019-05-16T15:06:40.697Z,68.43
2019-05-16T15:09:11.434Z,68.79
2019-05-16T15:11:41.880Z,68.61
2019-05-16T15:14:12.337Z,68.05
2019-05-16T15:16:43.024Z,67.50
2019-05-16T15:19:17.394Z,67.97
2019-05-16T15:21:47.827Z,67.81
2019-05-16T15:24:18.261Z,67.83
2019-05-16T15:26:48.690Z,68.17
2019-05-16T15:29:19.153Z,68.03
2019-05-16T15:31:49.496Z,68.59
2019-05-16T15:34:20.072Z,68.96
2019-05-16T15:36:50.547Z,69.65
2019-05-16T15:39:20.917Z,70.14
2019-05-16T15:41:51.341Z,70.07
2019-05-16T15:44:22.138Z,70.03
2019-05-16T15:46:52.536Z,70.03
2019-05-16T15:49:22.963Z,70.60
2019-05-16T15:51:53.567Z,70.43
2019-05-16T15:54:28.565Z,70.79
2019-05-16T15:56:58.337Z,70.59
2019-05-16T15:59:28.705Z,70.89
2019-05-16T16:01:59.091Z,70.62
2019-05-16T16:04:29.451Z,69.89
2019-05-16T16:06:59.910Z,69.36
2019-05-16T16:09:30.411Z,69.65
2019-05-16T16:12:00.965Z,69.41
2019-05-16T16:14:31.316Z,69.14
2019-05-16T16:17:01.760Z,69.55
2019-05-16T16:19:32.242Z,69.67
2019-05-16T16:22:02.598Z,69.16
2019-05-16T16:24:33.041Z,69.17
2019-05-16T16:27:03.515Z,69.88
2019-05-16T16:29:33.962Z,70.14
2019-05-16T16:32:06.499Z,70.32
2019-05-16T16:34:36.872Z,71.23
2019-05-16T16:37:07.710Z,71.05
2019-05-16T16:39:38.579Z,71.15
2019-05-16T16:42:09.158Z,70.42
2019-05-16T16:44:39.474Z,70.27
2019-05-16T16:47:09.911Z,70.28
2019-05-16T16:49:40.758Z,70.68
2019-05-16T16:52:11.386Z,70.78
2019-05-16T16:54:41.746Z,70.92
2019-05-16T16:57:13.123Z,70.83
2019-05-16T16:59:43.945Z,70.60
2019-05-16T17:02:16.997Z,70.87
2019-05-16T17:04:50.930Z,71.00
2019-05-16T17:07:18.701Z,71.34
2019-05-16T17:09:49.193Z,71.59
2019-05-16T17:12:19.716Z,71.88
2019-05-16T17:14:50.111Z,72.17
2019-05-16T17:17:20.810Z,72.30
2019-05-16T17:19:51.672Z,72.22
2019-05-16T17:22:22.107Z,72.08
2019-05-16T17:24:56.620Z,72.25
2019-05-16T17:27:27.044Z,72.27
2019-05-16T17:30:00.610Z,72.63
2019-05-16T17:32:29.681Z,72.70
2019-05-16T17:35:00.141Z,72.35
2019-05-16T17:37:30.969Z,71.84
2019-05-16T17:40:01.470Z,71.97
2019-05-16T17:42:34.494Z,72.04
2019-05-16T17:45:04.166Z,71.99
2019-05-16T17:47:36.889Z,72.00
2019-05-16T17:50:08.572Z,71.70
2019-05-16T17:52:39.006Z,71.62
2019-05-16T17:55:11.146Z,71.72
2019-05-16T17:57:41.602Z,72.23
2019-05-16T18:00:16.670Z,72.12
2019-05-16T18:02:46.520Z,72.17
2019-05-16T18:05:18.161Z,72.58
2019-05-16T18:07:48.636Z,72.67
2019-05-16T18:10:19.964Z,72.58
2019-05-16T18:12:50.563Z,72.52
2019-05-16T18:15:23.164Z,72.76
2019-05-16T18:17:53.578Z,73.09
2019-05-16T18:20:26.586Z,73.13
2019-05-16T18:22:57.283Z,73.26
2019-05-16T18:25:28.095Z,73.51
2019-05-16T18:27:58.978Z,73.61
2019-05-16T18:30:29.529Z,73.90
2019-05-16T18:33:00.002Z,73.79
2019-05-16T18:35:30.374Z,73.76
2019-05-16T18:38:00.765Z,73.75
2019-05-16T18:40:31.289Z,73.85
2019-05-16T18:43:01.740Z,74.01
2019-05-16T18:45:32.117Z,74.16
2019-05-16T18:48:02.610Z,74.11
2019-05-16T18:50:33.054Z,74.26
2019-05-16T18:53:03.429Z,74.15
2019-05-16T18:55:33.880Z,74.08
2019-05-16T18:58:07.477Z,74.40
2019-05-16T19:00:37.501Z,74.56
2019-05-16T19:03:08.472Z,74.74
2019-05-16T19:05:38.954Z,74.87
2019-05-16T19:08:09.365Z,75.10
2019-05-16T19:10:40.829Z,75.25
2019-05-16T19:13:12.510Z,75.30
2019-05-16T19:15:42.959Z,75.26
2019-05-16T19:18:13.370Z,75.12
2019-05-16T19:20:46.075Z,75.30
2019-05-16T19:23:17.609Z,75.20
2019-05-16T19:25:48.024Z,75.33
2019-05-16T19:28:18.436Z,75.46
2019-05-16T19:30:50.238Z,75.50
2019-05-16T19:33:20.759Z,75.36
2019-05-16T19:35:51.213Z,75.40
2019-05-16T19:38:21.644Z,75.37
2019-05-16T19:40:53.009Z,75.31
2019-05-16T19:43:23.389Z,75.22
2019-05-16T19:45:57.072Z,75.12
2019-05-16T19:48:27.158Z,75.09
2019-05-16T19:50:57.709Z,75.12
2019-05-16T19:53:28.109Z,75.21
2019-05-16T19:55:58.593Z,75.44
2019-05-16T19:58:31.154Z,75.83
2019-05-16T20:01:03.189Z,75.93
2019-05-16T20:03:33.824Z,76.32
2019-05-16T20:06:04.235Z,76.56
2019-05-16T20:08:34.621Z,76.74
2019-05-16T20:11:05.673Z,77.01
2019-05-16T20:13:36.747Z,77.14
2019-05-16T20:16:07.589Z,77.13
2019-05-16T20:18:38.054Z,77.13
2019-05-16T20:21:08.472Z,76.92
2019-05-16T20:23:38.865Z,76.91
2019-05-16T20:26:09.341Z,77.03
2019-05-16T20:28:40.047Z,76.90
2019-05-16T20:31:11.043Z,76.55
2019-05-16T20:33:41.598Z,76.30
2019-05-16T20:36:12.005Z,76.28
2019-05-16T20:38:43.050Z,76.24
2019-05-16T20:41:13.460Z,76.08
2019-05-16T20:43:43.896Z,75.79
2019-05-16T20:46:16.365Z,75.53
2019-05-16T20:48:46.504Z,74.99
2019-05-16T20:51:20.060Z,74.66
2019-05-16T20:53:49.843Z,74.22
2019-05-16T20:56:20.429Z,74.32
2019-05-16T20:58:50.903Z,74.17
2019-05-16T21:01:21.308Z,74.06
2019-05-16T21:03:51.778Z,73.90
2019-05-16T21:06:22.279Z,73.90
2019-05-16T21:08:52.667Z,73.86
2019-05-16T21:11:23.440Z,73.91
2019-05-16T21:13:56.534Z,73.67
2019-05-16T21:16:27.151Z,73.67
2019-05-16T21:18:57.599Z,73.69
2019-05-16T21:21:28.357Z,73.85
2019-05-16T21:23:59.434Z,74.11
2019-05-16T21:26:30.803Z,74.25
2019-05-16T21:29:01.499Z,74.11
2019-05-16T21:31:32.208Z,74.30
2019-05-16T21:34:02.943Z,74.21
2019-05-16T21:36:33.423Z,74.21
2019-05-16T21:39:08.128Z,74.20
2019-05-16T21:41:37.440Z,74.28
2019-05-16T21:44:08.004Z,74.05
2019-05-16T21:46:38.453Z,73.96
2019-05-16T21:49:09.016Z,73.75
2019-05-16T21:51:40.165Z,73.50
2019-05-16T21:54:10.565Z,73.14
2019-05-16T21:56:41.001Z,73.08
2019-05-16T21:59:11.697Z,73.05
2019-05-16T22:01:43.101Z,72.91
2019-05-16T22:04:14.072Z,72.97
2019-05-16T22:06:44.439Z,72.67
2019-05-16T22:09:14.855Z,72.63
2019-05-16T22:11:46.551Z,72.58
2019-05-16T22:14:19.815Z,72.58
2019-05-16T22:16:50.374Z,72.30
2019-05-16T22:19:20.828Z,72.45
2019-05-16T22:21:51.242Z,72.36
2019-05-16T22:24:21.671Z,72.70
2019-05-16T22:26:51.986Z,72.86
2019-05-16T22:29:22.400Z,72.78
2019-05-16T22:31:52.894Z,72.75
2019-05-16T22:34:23.241Z,72.87
2019-05-16T22:36:53.678Z,72.92
2019-05-16T22:39:26.372Z,73.07
2019-05-16T22:41:57.456Z,73.26
2019-05-16T22:44:27.775Z,73.33
2019-05-16T22:46:58.183Z,73.66
2019-05-16T22:49:28.525Z,73.91
2019-05-16T22:51:58.922Z,74.06
2019-05-16T22:54:29.904Z,74.21
2019-05-16T22:57:00.274Z,74.33
2019-05-16T22:59:30.695Z,74.54
2019-05-16T23:02:02.037Z,74.76
2019-05-16T23:04:32.434Z,75.05
2019-05-16T23:07:02.795Z,75.00
2019-05-16T23:09:33.287Z,75.22
2019-05-16T23:12:04.018Z,75.35
2019-05-16T23:14:34.829Z,75.18
2019-05-16T23:17:06.830Z,75.19
2019-05-16T23:19:37.158Z,75.23
2019-05-16T23:22:08.483Z,75.57
2019-05-16T23:24:38.955Z,75.81
2019-05-16T23:27:09.437Z,75.86
2019-05-16T23:29:40.831Z,75.94
2019-05-16T23:32:11.297Z,76.16
2019-05-16T23:34:41.651Z,76.25
2019-05-16T23:37:12.047Z,76.03
2019-05-16T23:39:42.586Z,75.79
2019-05-16T23:42:13.095Z,75.40
2019-05-16T23:44:43.458Z,75.05
2019-05-16T23:47:13.856Z,74.86
2019-05-16T23:49:44.220Z,74.56
2019-05-16T23:52:16.663Z,74.20
2019-05-16T23:54:47.551Z,73.88
2019-05-16T23:57:18.164Z,73.35
2019-05-16T23:59:48.593Z,72.81
